Ana Sayfa
METAR-TAF:

METAR-TAF

Havaalanları :

Eros Airport

Windhoek, Namibya

Enlem: 22-36-44S, Boylam: 017-04-50E, yükseklik: 1699 m

Güncel hava durumu gözlemi

Rapor saat 08:00 UTC de 17 dakika önce yapıldı.
Rüzgar değişken yönden 3 kt
Sıcaklık 26°C
Nem 9%
Basınç 1027 hPa
Görüş mesafesi 10 km veya daha fazla
1500 m altında bulut yok ve kümülonimbus yok

METAR: FYWE 150800Z VRB03KT CAVOK 26/M09 Q1027

Saat: 10:17 (08:17 UTC)

Tahmin

Rapor saat 05:00 UTC de 3 saat ve 17 dakika önce yapıldı.
Ayın 15'si saat 06 UTC'den ayın 15'si saat 15 UTC'ye kadar geçerli Tahmin
Rüzgar güneydoğudan 6 kt
Görüş mesafesi 10 km veya daha fazla
1500 m altında bulut yok ve kümülonimbus yok

TAF: FYWE 150500Z 1506/1515 14006KT CAVOK

4.000'den fazla havaalanı için hava durumu gözlemleri ve tahminleri (METAR ve TAF raporları).

Kullanılabilir istasyonlar harita üzerinde sarı ve kırmızı noktalarla gösterilir.

İstasyonun adını görmek için fareyi noktanın üzerinde gezdirin.

Sonrasında hava gözlem ve tahminlerini görmek için tıklayın.

Haritayı değiştirmek için: yaklaştırmak için siyah artı işaretli yeşil düğmeye ve uzaklaştırmak için de eksi işaretli düğmeye hızla tıklayın; bitişik haritalar için yeşil okları kullanın.


METAR-TAF: